Time;durP1;ratioP1;P1;durP2;ratioP2;P2;SDS_P1;SDS_P2;PMS_P1;PMS_P2;Temp;Humidity;BMP_temperature;BMP_pressure;BME280_temperature;BME280_humidity;BME280_pressure;Samples;Min_cycle;Max_cycle;Signal;HPM_P1;HPM_P2
2023/05/07 00:01:14;;;;;;;5.87;5.47;;;;;;;16.54;88.40;99757.84;5032850;28;20283;-68
2023/05/07 00:03:41;;;;;;;7.07;6.23;;;;;;;16.40;88.95;99755.53;5028335;28;20187;-69
2023/05/07 00:06:08;;;;;;;7.70;5.67;;;;;;;16.53;88.32;99755.41;5012834;28;20244;-68
2023/05/07 00:08:35;;;;;;;5.60;5.10;;;;;;;16.63;88.20;99756.50;5012768;28;20662;-68
2023/05/07 00:11:02;;;;;;;9.60;5.93;;;;;;;16.63;87.95;99755.66;5013062;28;20206;-68
2023/05/07 00:13:35;;;;;;;6.33;5.63;;;;;;;16.70;88.17;99751.84;5012990;28;20198;-69
2023/05/07 00:16:01;;;;;;;5.70;5.23;;;;;;;16.77;88.06;99752.56;5013107;28;20197;-68
2023/05/07 00:18:28;;;;;;;5.60;5.20;;;;;;;16.82;87.67;99752.69;5012665;28;20205;-69
2023/05/07 00:20:56;;;;;;;5.80;4.90;;;;;;;16.88;87.05;99749.09;5012487;28;20276;-68
2023/05/07 00:23:23;;;;;;;7.23;5.20;;;;;;;16.95;86.67;99749.00;5012896;28;20582;-68
2023/05/07 00:25:49;;;;;;;5.73;5.17;;;;;;;16.98;85.65;99745.84;5012754;28;20257;-68
2023/05/07 00:28:16;;;;;;;5.40;4.90;;;;;;;17.03;85.77;99754.03;5012274;28;20202;-69
2023/05/07 00:30:44;;;;;;;6.20;5.27;;;;;;;17.05;85.26;99749.22;5012461;28;20198;-68
2023/05/07 00:33:11;;;;;;;6.10;5.40;;;;;;;17.10;84.85;99752.03;5012728;28;20224;-68
2023/05/07 00:35:37;;;;;;;5.17;4.77;;;;;;;17.15;84.74;99749.50;5012617;28;20197;-69
2023/05/07 00:38:04;;;;;;;5.67;4.33;;;;;;;17.16;83.98;99746.59;5012675;28;20224;-68
2023/05/07 00:40:31;;;;;;;5.33;5.03;;;;;;;17.17;83.67;99755.44;5012472;28;20206;-69
2023/05/07 00:42:59;;;;;;;5.43;4.70;;;;;;;17.14;82.96;99758.56;5012645;28;20201;-69
2023/05/07 00:45:27;;;;;;;4.67;4.27;;;;;;;17.17;82.59;99758.13;5012519;28;20194;-69
2023/05/07 00:47:58;;;;;;;4.60;4.30;;;;;;;17.11;82.09;99751.00;5012533;28;20291;-69
2023/05/07 00:50:25;;;;;;;5.13;4.73;;;;;;;16.94;81.93;99756.22;5012196;28;20182;-68
2023/05/07 00:52:51;;;;;;;5.77;4.07;;;;;;;16.73;82.50;99745.19;5012472;28;20199;-68
2023/05/07 00:55:18;;;;;;;4.93;4.57;;;;;;;16.88;82.08;99761.69;5012043;28;20207;-68
2023/05/07 00:57:46;;;;;;;5.20;4.50;;;;;;;16.91;82.15;99759.34;5012590;28;20264;-68
2023/05/07 01:00:13;;;;;;;6.00;4.67;;;;;;;16.98;81.88;99764.63;5011938;28;20194;-69
2023/05/07 01:02:40;;;;;;;6.83;4.70;;;;;;;17.00;81.75;99763.34;5012211;28;20239;-69
2023/05/07 01:05:11;;;;;;;6.77;4.77;;;;;;;17.02;81.68;99761.25;5027838;28;20263;-70
2023/05/07 01:07:40;;;;;;;4.70;4.30;;;;;;;17.06;81.53;99767.00;5031763;28;20212;-69
2023/05/07 01:10:09;;;;;;;4.40;4.10;;;;;;;17.06;81.22;99756.25;5031965;28;20201;-68
2023/05/07 01:12:37;;;;;;;5.70;5.07;;;;;;;17.13;81.09;99767.69;5031928;28;20228;-68
2023/05/07 01:15:06;;;;;;;4.87;4.50;;;;;;;17.16;81.21;99761.84;5031654;28;20730;-68
2023/05/07 01:17:35;;;;;;;6.00;4.93;;;;;;;17.15;81.71;99765.59;5031980;28;20197;-68
2023/05/07 01:20:03;;;;;;;6.27;4.83;;;;;;;17.11;81.64;99756.38;5031366;28;20202;-69
2023/05/07 01:22:34;;;;;;;9.40;4.50;;;;;;;17.08;81.92;99759.50;5031365;28;20719;-68
2023/05/07 01:25:01;;;;;;;4.90;4.37;;;;;;;17.07;81.66;99757.88;5031585;28;20189;-68
2023/05/07 01:27:28;;;;;;;5.10;4.80;;;;;;;17.09;81.74;99761.13;5031519;28;20736;-68
2023/05/07 01:29:55;;;;;;;5.00;4.70;;;;;;;17.10;81.63;99752.03;5031981;28;20288;-68
2023/05/07 01:32:28;;;;;;;5.47;4.97;;;;;;;17.01;81.79;99750.75;5031725;28;20199;-68
2023/05/07 01:34:56;;;;;;;4.90;4.50;;;;;;;17.00;82.00;99754.47;5031647;28;20183;-69
2023/05/07 01:37:23;;;;;;;5.17;4.83;;;;;;;17.01;82.53;99754.25;5035189;28;20626;-68
2023/05/07 01:39:52;;;;;;;5.70;5.30;;;;;;;17.02;81.80;99760.44;5035757;28;20197;-68
2023/05/07 01:42:18;;;;;;;5.60;5.10;;;;;;;16.99;81.71;99760.91;5035511;28;20650;-68
2023/05/07 01:44:45;;;;;;;5.77;5.37;;;;;;;16.98;81.45;99759.28;5035333;28;20251;-68
2023/05/07 01:47:13;;;;;;;6.30;5.20;;;;;;;16.99;82.09;99750.97;5035088;28;20631;-68
2023/05/07 01:49:40;;;;;;;6.17;5.57;;;;;;;17.01;82.52;99750.75;5035494;28;20319;-68
2023/05/07 01:52:07;;;;;;;5.87;5.10;;;;;;;16.92;83.38;99749.44;5034835;28;20256;-68
2023/05/07 01:54:34;;;;;;;6.40;5.33;;;;;;;16.75;84.49;99753.84;5035453;28;20251;-68
2023/05/07 01:57:02;;;;;;;5.77;5.27;;;;;;;16.55;86.28;99747.94;5035394;28;20191;-68
2023/05/07 01:59:29;;;;;;;5.60;5.20;;;;;;;16.53;86.62;99752.72;5035005;28;20201;-68
2023/05/07 02:01:56;;;;;;;7.13;6.20;;;;;;;16.53;87.69;99750.84;5035324;28;20224;-68
2023/05/07 02:04:22;;;;;;;5.50;5.10;;;;;;;16.46;87.57;99752.00;5025380;28;20197;-68
2023/05/07 02:06:49;;;;;;;6.33;5.73;;;;;;;16.37;88.22;99746.09;5015395;28;20190;-68
2023/05/07 02:09:16;;;;;;;7.23;6.63;;;;;;;16.17;88.57;99742.03;5015110;28;20190;-68
2023/05/07 02:11:43;;;;;;;6.03;5.67;;;;;;;16.16;89.58;99751.13;5014780;28;20202;-68
2023/05/07 02:14:11;;;;;;;6.70;5.80;;;;;;;16.04;89.85;99750.25;5015023;28;20198;-68
2023/05/07 02:16:37;;;;;;;6.37;5.83;;;;;;;16.07;90.62;99739.06;5014781;28;20202;-68
2023/05/07 02:19:05;;;;;;;5.77;5.40;;;;;;;15.96;90.97;99727.25;5014971;28;20190;-68
2023/05/07 02:21:31;;;;;;;6.47;5.90;;;;;;;15.90;91.36;99742.34;5014972;28;20720;-68
2023/05/07 02:23:58;;;;;;;7.90;5.83;;;;;;;15.88;91.41;99745.50;5015120;28;20210;-68
2023/05/07 02:26:25;;;;;;;8.47;6.77;;;;;;;15.96;91.55;99746.00;5014973;28;20259;-68
2023/05/07 02:28:53;;;;;;;6.57;6.07;;;;;;;15.89;91.34;99715.81;5014732;28;20616;-67
2023/05/07 02:31:21;;;;;;;7.80;6.17;;;;;;;16.08;91.01;99741.53;5014688;28;20191;-68
2023/05/07 02:33:48;;;;;;;6.40;6.00;;;;;;;16.10;90.46;99734.09;5014700;28;20268;-68
2023/05/07 02:36:15;;;;;;;6.57;6.07;;;;;;;16.00;90.26;99739.16;5014502;28;20256;-68
2023/05/07 02:38:41;;;;;;;6.80;6.30;;;;;;;16.03;90.24;99738.72;5014567;28;20194;-68
2023/05/07 02:41:08;;;;;;;6.43;6.03;;;;;;;16.06;89.52;99742.78;5014838;28;20645;-68
2023/05/07 02:43:35;;;;;;;10.13;6.60;;;;;;;16.09;88.87;99747.72;5014213;28;20198;-68
2023/05/07 02:46:03;;;;;;;6.93;6.43;;;;;;;16.08;88.85;99746.88;5013924;28;20198;-68
2023/05/07 02:48:31;;;;;;;7.20;6.73;;;;;;;16.09;88.54;99745.03;5013939;28;20285;-69
2023/05/07 02:50:58;;;;;;;11.63;7.10;;;;;;;16.06;88.15;99732.06;5014660;28;20202;-68
2023/05/07 02:53:26;;;;;;;9.77;7.17;;;;;;;16.06;88.21;99738.25;5014642;28;20190;-68
2023/05/07 02:55:53;;;;;;;7.80;7.00;;;;;;;16.08;88.18;99740.72;5014830;28;20201;-68
2023/05/07 02:58:20;;;;;;;7.37;6.90;;;;;;;16.01;88.79;99739.97;5014170;28;20208;-69
2023/05/07 03:00:47;;;;;;;7.10;6.37;;;;;;;15.96;89.04;99732.59;5014208;28;20194;-69
2023/05/07 03:03:14;;;;;;;7.03;6.40;;;;;;;15.92;89.07;99730.63;5014371;28;20696;-69
2023/05/07 03:05:42;;;;;;;7.87;7.23;;;;;;;15.88;89.76;99732.09;5034150;28;20255;-69
2023/05/07 03:08:10;;;;;;;7.47;6.87;;;;;;;15.79;91.21;99727.03;5034037;28;20202;-69
2023/05/07 03:10:36;;;;;;;7.37;6.70;;;;;;;15.62;92.48;99726.00;5033894;28;20197;-69
2023/05/07 03:13:03;;;;;;;7.70;7.20;;;;;;;15.39;93.13;99709.75;5033578;28;20255;-69
2023/05/07 03:15:30;;;;;;;8.67;7.80;;;;;;;15.32;94.39;99725.03;5034007;28;20191;-70
2023/05/07 03:17:57;;;;;;;8.30;7.70;;;;;;;15.25;95.93;99732.31;5033675;28;20193;-70
2023/05/07 03:20:24;;;;;;;8.63;7.80;;;;;;;15.12;96.63;99726.25;5033999;28;20197;-68
2023/05/07 03:22:52;;;;;;;9.07;8.17;;;;;;;15.01;97.28;99727.81;5033420;28;20704;-69
2023/05/07 03:25:19;;;;;;;9.23;8.57;;;;;;;14.93;97.68;99722.72;5033591;28;20687;-69
2023/05/07 03:27:45;;;;;;;9.77;8.97;;;;;;;14.84;98.76;99732.06;5033704;28;20219;-69
2023/05/07 03:30:13;;;;;;;9.13;8.23;;;;;;;14.79;99.78;99734.53;5033837;28;20233;-69
2023/05/07 03:32:40;;;;;;;9.63;8.83;;;;;;;14.77;100.00;99731.28;5033590;28;20263;-69
2023/05/07 03:35:07;;;;;;;10.07;9.27;;;;;;;14.74;100.00;99733.53;5033528;28;20629;-67
2023/05/07 03:37:34;;;;;;;10.07;9.17;;;;;;;14.67;100.00;99730.13;5033217;28;20342;-67
2023/05/07 03:40:02;;;;;;;11.97;9.37;;;;;;;14.64;100.00;99741.25;5033595;28;20259;-67
2023/05/07 03:42:29;;;;;;;9.83;8.93;;;;;;;14.62;100.00;99738.78;5033122;28;20225;-67
2023/05/07 03:44:56;;;;;;;10.10;9.20;;;;;;;14.61;100.00;99736.31;5033341;28;20200;-67
2023/05/07 03:47:23;;;;;;;10.90;10.13;;;;;;;14.54;100.00;99741.72;5033255;28;20280;-66
2023/05/07 03:49:50;;;;;;;10.37;9.67;;;;;;;14.59;100.00;99739.19;5033156;28;20193;-67
2023/05/07 03:52:22;;;;;;;10.47;9.47;;;;;;;14.52;100.00;99743.78;5033130;28;20259;-67
2023/05/07 03:54:49;;;;;;;11.30;10.17;;;;;;;14.71;100.00;99737.47;5033286;28;20193;-67
2023/05/07 03:57:17;;;;;;;11.83;10.87;;;;;;;15.18;100.00;99744.94;5033320;28;20243;-68
2023/05/07 03:59:44;;;;;;;10.43;9.43;;;;;;;15.74;97.02;99747.50;5032764;28;20247;-68
2023/05/07 04:02:10;;;;;;;10.80;8.73;;;;;;;16.38;94.62;99746.91;5032913;28;20229;-69
2023/05/07 04:04:37;;;;;;;8.17;7.47;;;;;;;16.88;89.90;99753.63;5021085;28;20249;-69
2023/05/07 04:07:04;;;;;;;8.20;6.63;;;;;;;17.38;85.94;99754.84;5013315;28;20256;-69
2023/05/07 04:09:30;;;;;;;7.70;7.17;;;;;;;17.86;82.81;99763.50;5012810;28;20676;-69
2023/05/07 04:11:57;;;;;;;7.30;6.70;;;;;;;18.42;79.41;99779.78;5012860;28;20666;-70
2023/05/07 04:14:25;;;;;;;9.87;6.73;;;;;;;18.77;77.30;99766.97;5012995;28;20217;-69
2023/05/07 04:16:52;;;;;;;9.27;6.47;;;;;;;19.10;75.64;99777.78;5012841;28;20260;-68
2023/05/07 04:19:18;;;;;;;6.80;6.20;;;;;;;19.54;74.00;99776.91;5012675;28;20710;-68
2023/05/07 04:21:45;;;;;;;7.63;6.23;;;;;;;19.81;71.26;99780.56;5012956;28;20257;-69
2023/05/07 04:24:12;;;;;;;9.30;6.67;;;;;;;20.10;70.46;99773.97;5012590;28;20195;-69
2023/05/07 04:26:38;;;;;;;6.57;6.17;;;;;;;20.49;67.64;99781.72;5012624;28;20791;-70
2023/05/07 04:29:05;;;;;;;6.40;5.80;;;;;;;20.74;67.02;99781.16;5012727;28;20229;-70
2023/05/07 04:31:33;;;;;;;7.57;6.33;;;;;;;21.11;65.88;99787.50;5012868;28;20252;-70
2023/05/07 04:34:00;;;;;;;6.40;5.90;;;;;;;21.35;63.79;99788.78;5012478;28;20194;-69
2023/05/07 04:36:28;;;;;;;7.13;6.53;;;;;;;21.83;62.69;99795.91;5012506;28;20616;-69
2023/05/07 04:38:55;;;;;;;6.53;5.93;;;;;;;21.98;60.84;99794.13;5012194;28;20547;-69
2023/05/07 04:41:22;;;;;;;6.13;5.73;;;;;;;22.07;60.51;99791.72;5012519;28;20197;-69
2023/05/07 04:43:49;;;;;;;6.90;5.97;;;;;;;22.23;59.65;99791.53;5012086;28;20283;-69
2023/05/07 04:46:16;;;;;;;6.57;5.97;;;;;;;22.48;59.93;99788.94;5012155;28;20729;-69
2023/05/07 04:48:44;;;;;;;6.03;5.57;;;;;;;22.69;57.91;99790.63;5012346;28;20202;-70
2023/05/07 04:51:10;;;;;;;5.90;5.40;;;;;;;22.89;58.13;99790.69;5012398;28;20297;-70
2023/05/07 04:53:38;;;;;;;6.23;5.70;;;;;;;23.51;56.55;99788.56;5011999;28;20631;-70
2023/05/07 04:56:05;;;;;;;5.90;5.40;;;;;;;24.00;55.23;99792.28;5012417;28;20190;-71
2023/05/07 04:58:32;;;;;;;5.63;5.13;;;;;;;24.45;53.50;99789.41;5012222;28;20190;-70
2023/05/07 05:00:58;;;;;;;6.17;5.70;;;;;;;24.90;50.65;99778.31;5011927;28;20675;-71
2023/05/07 05:03:25;;;;;;;5.83;5.27;;;;;;;25.08;50.37;99781.44;5013730;28;20265;-70
2023/05/07 05:05:53;;;;;;;6.10;5.50;;;;;;;25.32;49.76;99785.09;5031619;28;20244;-70
2023/05/07 05:08:20;;;;;;;5.37;5.07;;;;;;;25.67;49.40;99785.59;5031167;28;20640;-70
2023/05/07 05:10:48;;;;;;;5.53;4.90;;;;;;;25.67;48.94;99784.75;5030769;28;20257;-69
2023/05/07 05:13:15;;;;;;;4.93;4.63;;;;;;;26.02;47.57;99784.44;5032022;28;20282;-69
2023/05/07 05:15:41;;;;;;;5.50;5.00;;;;;;;26.46;45.95;99782.25;5031403;28;20200;-69
2023/05/07 05:18:08;;;;;;;5.30;4.93;;;;;;;26.84;44.62;99790.22;5031421;28;20201;-72
2023/05/07 05:20:35;;;;;;;6.93;5.23;;;;;;;26.80;43.79;99788.34;5031521;28;20676;-72
2023/05/07 05:23:03;;;;;;;5.30;4.80;;;;;;;27.04;45.02;99794.53;5031688;28;20258;-72
2023/05/07 05:25:30;;;;;;;5.90;5.00;;;;;;;27.01;43.84;99795.13;5031369;28;20681;-72
2023/05/07 05:27:57;;;;;;;5.93;5.37;;;;;;;26.98;43.98;99801.16;5031189;28;20248;-71
2023/05/07 05:30:23;;;;;;;4.67;4.37;;;;;;;26.66;45.57;99798.38;5030984;28;20228;-71
2023/05/07 05:32:50;;;;;;;5.77;5.37;;;;;;;26.95;43.95;99804.50;5030852;28;20209;-69
2023/05/07 05:35:17;;;;;;;5.90;5.17;;;;;;;27.35;43.22;99798.44;5030902;28;20247;-73
2023/05/07 05:37:44;;;;;;;5.43;4.90;;;;;;;27.32;42.31;99802.56;5030217;28;20665;-71
2023/05/07 05:40:13;;;;;;;4.83;4.47;;;;;;;27.27;44.32;99799.91;5029549;28;20194;-74
2023/05/07 05:42:39;;;;;;;5.13;4.73;;;;;;;27.69;41.59;99802.47;5029361;28;20224;-74
2023/05/07 05:45:07;;;;;;;8.53;4.53;;;;;;;27.43;43.22;99793.09;5029752;28;20205;-72
2023/05/07 05:47:34;;;;;;;5.07;4.63;;;;;;;27.43;41.31;99814.13;5029885;28;20190;-70
2023/05/07 05:50:01;;;;;;;4.97;4.60;;;;;;;27.55;41.60;99809.00;5029348;28;20247;-71
2023/05/07 05:52:27;;;;;;;6.53;4.50;;;;;;;28.01;41.31;99804.38;5029931;28;20661;-72
2023/05/07 05:54:54;;;;;;;4.50;4.20;;;;;;;28.15;40.51;99806.00;5029414;28;20190;-71
2023/05/07 05:57:22;;;;;;;5.83;4.10;;;;;;;28.74;38.50;99816.00;5028395;28;20259;-70
2023/05/07 05:59:49;;;;;;;6.10;4.53;;;;;;;28.65;38.60;99812.38;5029481;28;20259;-71
2023/05/07 06:02:16;;;;;;;7.87;4.67;;;;;;;29.04;37.71;99815.38;5027519;28;20727;-71
2023/05/07 06:04:43;;;;;;;5.73;4.20;;;;;;;29.35;36.69;99801.75;5016544;28;20205;-72
2023/05/07 06:07:09;;;;;;;5.00;4.50;;;;;;;29.54;36.30;99814.13;5027416;28;20940;-72
2023/05/07 06:09:36;;;;;;;5.20;4.70;;;;;;;29.35;35.68;99807.25;5025668;28;20574;-71
2023/05/07 06:12:03;;;;;;;4.87;4.20;;;;;;;29.08;37.47;99819.09;5029086;28;20255;-72
2023/05/07 06:14:31;;;;;;;4.27;3.97;;;;;;;29.10;37.10;99811.38;5029104;28;20193;-71
2023/05/07 06:16:58;;;;;;;5.20;4.33;;;;;;;29.00;37.00;99817.09;5030407;28;20189;-72
2023/05/07 06:19:26;;;;;;;5.57;3.73;;;;;;;28.78;37.06;99800.59;5031125;28;20193;-71
2023/05/07 06:21:53;;;;;;;9.83;4.70;;;;;;;28.76;35.99;99814.59;5033015;28;20281;-75
2023/05/07 06:24:19;;;;;;;5.10;4.50;;;;;;;28.19;37.94;99808.94;5030953;28;20733;-72
2023/05/07 06:26:46;;;;;;;4.73;4.43;;;;;;;27.97;38.76;99804.16;5031896;28;20209;-73
2023/05/07 06:29:13;;;;;;;6.80;4.70;;;;;;;27.89;37.97;99795.88;5031682;28;20639;-70
2023/05/07 06:31:41;;;;;;;6.73;4.10;;;;;;;27.95;39.13;99806.41;5032888;28;20370;-69
2023/05/07 06:34:08;;;;;;;4.97;4.67;;;;;;;28.53;36.83;99812.91;5031479;28;20201;-68
2023/05/07 06:36:35;;;;;;;6.73;4.40;;;;;;;28.71;37.02;99798.28;5030325;28;20197;-71
2023/05/07 06:39:02;;;;;;;5.83;4.90;;;;;;;28.95;37.03;99800.78;5050769;28;20227;-68
2023/05/07 06:41:28;;;;;;;8.63;4.63;;;;;;;29.04;36.29;99796.22;5051978;28;20195;-69
2023/05/07 06:43:55;;;;;;;4.87;4.17;;;;;;;29.07;34.90;99801.03;5033717;28;20680;-68
2023/05/07 06:46:22;;;;;;;8.20;4.90;;;;;;;28.38;36.99;99809.66;5034213;28;20189;-68
2023/05/07 06:48:50;;;;;;;8.80;4.90;;;;;;;28.08;37.72;99802.88;5029692;28;20201;-68
2023/05/07 06:51:17;;;;;;;5.23;4.50;;;;;;;28.21;37.95;99793.03;5033207;28;20200;-69
2023/05/07 06:53:43;;;;;;;5.37;4.90;;;;;;;28.27;37.98;99800.03;5030595;28;20236;-72
2023/05/07 06:56:10;;;;;;;9.23;4.53;;;;;;;28.86;37.33;99805.34;5028767;28;20646;-76
2023/05/07 06:58:38;;;;;;;6.20;4.17;;;;;;;28.76;37.04;99805.56;5019698;28;20546;-77
2023/05/07 07:01:05;;;;;;;5.37;4.70;;;;;;;28.90;36.03;99806.34;5028323;28;20820;-75
2023/05/07 07:03:31;;;;;;;7.13;4.73;;;;;;;29.03;35.75;99805.53;5021333;28;20222;-77
2023/05/07 07:06:01;;;;;;;6.20;4.37;;;;;;;28.67;36.84;99800.00;5012975;28;20194;-76
2023/05/07 07:08:28;;;;;;;5.30;4.67;;;;;;;28.40;36.65;99801.94;5018551;28;20201;-75
2023/05/07 07:10:55;;;;;;;9.77;5.20;;;;;;;28.34;37.89;99805.91;5032678;28;20193;-75
2023/05/07 07:13:21;;;;;;;5.13;4.73;;;;;;;28.41;38.68;99795.38;5032840;28;20192;-74
2023/05/07 07:15:48;;;;;;;4.87;4.47;;;;;;;28.54;37.51;99797.31;5032656;28;20197;-72
2023/05/07 07:18:15;;;;;;;5.10;4.80;;;;;;;28.89;37.08;99800.06;5031156;28;20657;-75
2023/05/07 07:20:42;;;;;;;9.33;4.43;;;;;;;29.14;36.39;99804.16;5031877;28;20255;-72
2023/05/07 07:23:10;;;;;;;6.53;4.10;;;;;;;29.18;36.19;99803.25;5032537;28;20225;-76
2023/05/07 07:25:36;;;;;;;4.50;4.20;;;;;;;29.09;36.63;99798.81;5031755;28;20197;-74
2023/05/07 07:28:03;;;;;;;6.27;5.27;;;;;;;29.08;35.61;99805.41;5032039;28;20189;-77
2023/05/07 07:30:30;;;;;;;7.60;5.03;;;;;;;29.09;35.99;99816.06;5032330;28;20229;-73
2023/05/07 07:33:02;;;;;;;5.17;4.83;;;;;;;29.17;35.82;99809.03;5048836;28;20205;-73
2023/05/07 07:35:28;;;;;;;5.53;5.23;;;;;;;29.18;34.97;99824.31;5011869;28;20190;-73
2023/05/07 07:37:55;;;;;;;5.17;4.87;;;;;;;29.36;35.29;99812.41;5012267;28;20197;-73
2023/05/07 07:40:24;;;;;;;4.90;4.60;;;;;;;29.52;34.63;99813.63;5031686;28;20750;-73
2023/05/07 07:42:51;;;;;;;4.70;4.50;;;;;;;29.36;34.17;99812.41;5031683;28;20636;-73
2023/05/07 07:45:18;;;;;;;5.73;4.70;;;;;;;28.98;34.87;99819.28;5032509;28;20194;-73
2023/05/07 07:47:45;;;;;;;5.03;4.53;;;;;;;28.98;36.11;99813.81;5032010;28;20197;-75
2023/05/07 07:50:12;;;;;;;4.77;4.37;;;;;;;29.17;35.50;99822.72;5028749;28;20248;-72
2023/05/07 07:52:39;;;;;;;5.07;4.70;;;;;;;29.38;35.89;99810.16;5032615;28;20616;-71
2023/05/07 07:55:07;;;;;;;4.80;4.40;;;;;;;29.57;36.14;99819.03;5031543;28;20681;-71
2023/05/07 07:57:35;;;;;;;5.00;4.50;;;;;;;29.70;35.01;99815.41;5031876;28;20555;-74
2023/05/07 08:00:02;;;;;;;8.73;5.30;;;;;;;29.53;34.54;99815.25;5031732;28;20202;-71
2023/05/07 08:02:28;;;;;;;4.80;4.40;;;;;;;29.41;35.27;99817.75;5031533;28;20199;-71
2023/05/07 08:04:55;;;;;;;8.37;4.80;;;;;;;29.58;35.78;99815.16;5031809;28;20220;-71
2023/05/07 08:07:22;;;;;;;6.20;5.53;;;;;;;29.83;34.81;99813.66;5031224;28;20197;-72
2023/05/07 08:09:49;;;;;;;5.50;4.57;;;;;;;29.81;35.10;99811.28;5031775;28;20200;-72
2023/05/07 08:12:16;;;;;;;5.67;4.40;;;;;;;29.57;35.97;99813.53;5031210;28;20641;-71
2023/05/07 08:14:44;;;;;;;4.20;3.73;;;;;;;29.56;35.88;99800.91;5031622;28;20198;-71
2023/05/07 08:17:11;;;;;;;5.27;4.77;;;;;;;29.44;34.77;99808.91;5031255;28;20201;-71
2023/05/07 08:19:38;;;;;;;4.23;3.83;;;;;;;29.19;36.36;99809.50;5031803;28;20193;-71
2023/05/07 08:22:05;;;;;;;6.33;5.07;;;;;;;29.20;35.45;99805.69;5031493;28;20542;-71
2023/05/07 08:24:32;;;;;;;9.37;5.13;;;;;;;29.24;35.52;99785.56;5031887;28;20215;-72
2023/05/07 08:26:58;;;;;;;11.30;4.00;;;;;;;29.44;35.50;99794.41;5031253;28;20205;-72
2023/05/07 08:29:25;;;;;;;4.20;3.37;;;;;;;29.39;36.29;99795.34;5030246;28;20220;-73
2023/05/07 08:31:53;;;;;;;4.40;4.10;;;;;;;29.40;35.46;99794.25;5024035;28;20660;-74
2023/05/07 08:34:20;;;;;;;4.20;3.73;;;;;;;29.60;35.23;99801.16;5018121;28;20701;-73
2023/05/07 08:36:48;;;;;;;3.77;3.43;;;;;;;29.78;34.71;99789.97;5011816;28;20666;-73
2023/05/07 08:39:17;;;;;;;3.90;3.47;;;;;;;29.79;34.33;99791.59;5017332;28;20178;-73
2023/05/07 08:41:46;;;;;;;5.10;4.60;;;;;;;29.62;34.09;99791.50;5031754;28;20190;-74
2023/05/07 08:44:14;;;;;;;4.90;3.50;;;;;;;29.61;34.53;99795.38;5027938;28;20317;-74
2023/05/07 08:46:43;;;;;;;4.57;4.20;;;;;;;29.63;34.44;99787.63;5029559;28;20661;-75
2023/05/07 08:49:11;;;;;;;6.47;3.73;;;;;;;29.52;35.09;99780.75;5022638;28;20205;-70
2023/05/07 08:51:38;;;;;;;5.00;4.40;;;;;;;29.52;34.30;99790.91;5030959;28;20573;-75
2023/05/07 08:54:06;;;;;;;4.53;4.20;;;;;;;29.55;35.22;99769.19;5021067;28;20742;-72
2023/05/07 08:56:33;;;;;;;3.97;3.73;;;;;;;29.82;34.58;99774.53;5025043;28;20297;-70
2023/05/07 08:59:00;;;;;;;3.73;3.40;;;;;;;29.90;34.61;99771.03;5014320;28;20251;-68
2023/05/07 09:01:27;;;;;;;4.20;3.43;;;;;;;29.73;34.49;99776.44;5011522;28;20198;-68
2023/05/07 09:03:54;;;;;;;3.30;3.10;;;;;;;29.95;34.02;99772.78;5022868;28;20256;-67
2023/05/07 09:06:23;;;;;;;3.50;3.30;;;;;;;29.99;33.45;99769.13;5024044;28;20752;-69
2023/05/07 09:08:53;;;;;;;3.20;2.90;;;;;;;29.85;32.92;99773.91;5025050;28;20402;-69
2023/05/07 09:11:23;;;;;;;3.60;3.30;;;;;;;29.61;33.17;99772.63;5030424;28;20659;-68
2023/05/07 09:13:55;;;;;;;3.50;3.17;;;;;;;29.56;33.36;99759.84;5017770;28;20198;-68
2023/05/07 09:16:22;;;;;;;3.63;3.33;;;;;;;29.66;33.29;99787.00;5030038;28;20193;-70
2023/05/07 09:18:52;;;;;;;3.40;3.20;;;;;;;29.71;32.50;99767.69;5030691;28;20200;-72
2023/05/07 09:21:19;;;;;;;2.77;2.57;;;;;;;29.50;31.71;99750.16;5027358;28;20208;-73
2023/05/07 09:23:49;;;;;;;4.17;3.07;;;;;;;29.28;33.44;99766.63;5021039;28;20217;-70
2023/05/07 09:26:15;;;;;;;3.33;2.60;;;;;;;29.23;33.15;99761.25;5017666;28;20194;-77
2023/05/07 09:28:42;;;;;;;3.73;2.80;;;;;;;29.45;32.43;99764.00;5010847;28;20593;-73
2023/05/07 09:31:09;;;;;;;3.93;2.50;;;;;;;29.50;31.46;99746.59;5030365;28;20715;-72
2023/05/07 09:33:36;;;;;;;2.73;2.53;;;;;;;29.71;30.98;99756.75;5016313;28;20198;-78
2023/05/07 09:36:04;;;;;;;2.90;2.70;;;;;;;29.54;29.63;99756.63;5028171;28;20197;-76
2023/05/07 09:38:32;;;;;;;2.53;2.27;;;;;;;28.95;29.90;99759.75;5031178;28;20263;-75
2023/05/07 09:41:08;;;;;;;3.77;2.73;;;;;;;28.63;29.08;99754.47;5030878;28;20251;-75
2023/05/07 09:43:35;;;;;;;4.33;2.57;;;;;;;28.68;29.78;99741.50;5029949;28;20216;-74
2023/05/07 09:46:08;;;;;;;4.63;2.50;;;;;;;28.58;30.65;99747.19;5030974;28;20193;-74
2023/05/07 09:48:39;;;;;;;3.57;2.80;;;;;;;28.70;31.24;99731.03;5030159;28;20588;-75
2023/05/07 09:51:15;;;;;;;18.13;2.97;;;;;;;28.85;31.14;99743.56;5031020;28;20571;-68
2023/05/07 09:53:42;;;;;;;3.23;3.03;;;;;;;28.97;29.78;99746.53;5029955;28;20201;-72
2023/05/07 09:56:12;;;;;;;3.60;2.47;;;;;;;29.17;30.16;99729.66;5030309;28;20216;-73
2023/05/07 09:58:42;;;;;;;3.27;2.30;;;;;;;29.23;29.98;99726.50;5019979;28;20202;-73
2023/05/07 10:01:11;;;;;;;3.53;2.73;;;;;;;29.02;29.76;99740.97;5032544;28;20212;-73
2023/05/07 10:03:39;;;;;;;3.73;3.10;;;;;;;28.71;30.40;99720.94;5032857;28;20657;-76
2023/05/07 10:06:06;;;;;;;2.70;2.60;;;;;;;28.60;30.67;99725.81;5033054;28;20735;-75
2023/05/07 10:08:33;;;;;;;3.87;2.63;;;;;;;28.76;31.10;99723.53;5032941;28;20201;-73
2023/05/07 10:11:01;;;;;;;3.03;2.73;;;;;;;28.57;31.50;99731.06;5033169;28;20731;-73
2023/05/07 10:13:30;;;;;;;3.30;3.00;;;;;;;28.44;30.96;99718.25;5032586;28;20193;-70
2023/05/07 10:15:57;;;;;;;2.83;2.60;;;;;;;27.61;31.68;99717.75;5032807;28;20197;-73
2023/05/07 10:18:29;;;;;;;2.97;2.77;;;;;;;27.85;31.78;99723.84;5033384;28;20634;-72
2023/05/07 10:21:02;;;;;;;4.33;2.90;;;;;;;27.71;31.32;99712.06;5020012;28;20289;-72
2023/05/07 10:23:31;;;;;;;4.40;3.03;;;;;;;27.88;30.70;99701.38;5011719;28;20638;-72
2023/05/07 10:26:00;;;;;;;3.50;3.20;;;;;;;28.08;31.19;99700.97;5029217;28;20193;-72
2023/05/07 10:28:28;;;;;;;4.47;3.50;;;;;;;28.08;31.59;99698.25;5033168;28;20617;-73
2023/05/07 10:31:08;;;;;;;4.93;2.80;;;;;;;27.88;31.70;99695.91;5017107;28;20194;-73
2023/05/07 10:33:37;;;;;;;3.00;2.80;;;;;;;27.49;32.63;99692.84;5014404;28;20186;-73
2023/05/07 10:36:05;;;;;;;3.80;2.80;;;;;;;27.27;32.73;99684.53;5029285;28;20251;-72
2023/05/07 10:38:32;;;;;;;3.73;3.43;;;;;;;27.44;32.59;99684.78;5033948;28;20669;-72
2023/05/07 10:40:59;;;;;;;5.40;3.70;;;;;;;27.15;33.07;99692.34;5031255;28;20197;-72
2023/05/07 10:43:25;;;;;;;3.00;2.70;;;;;;;27.04;33.18;99685.44;5034104;28;20197;-73
2023/05/07 10:46:17;;;;;;;4.57;2.60;;;;;;;26.56;33.28;99678.56;5032048;28;20256;-73
2023/05/07 10:49:12;;;;;;;3.00;2.90;;;;;;;26.70;32.93;99674.03;5034025;28;20554;-73
2023/05/07 10:51:39;;;;;;;4.33;4.13;;;;;;;26.94;32.54;99677.44;5032671;28;20194;-73
2023/05/07 10:54:23;;;;;;;4.03;3.73;;;;;;;26.86;32.29;99672.69;5034323;28;20210;-73
2023/05/07 10:56:51;;;;;;;4.57;2.93;;;;;;;27.02;31.87;99666.66;5033408;28;20572;-73
2023/05/07 10:59:41;;;;;;;2.93;2.73;;;;;;;26.74;32.69;99669.59;5033995;28;20240;-73
2023/05/07 11:02:11;;;;;;;7.73;7.03;;;;;;;26.82;31.73;99667.00;5033089;28;20300;-73
2023/05/07 11:04:38;;;;;;;2.87;2.67;;;;;;;27.11;32.59;99666.78;5033499;28;20309;-74
2023/05/07 11:07:27;;;;;;;2.90;2.70;;;;;;;26.79;32.22;99664.06;5032273;28;20197;-73
2023/05/07 11:10:01;;;;;;;2.80;2.60;;;;;;;26.72;31.87;99660.91;5033719;28;20185;-73
2023/05/07 11:13:04;;;;;;;3.23;2.93;;;;;;;26.03;33.69;99663.50;5032792;28;20191;-73
2023/05/07 11:15:49;;;;;;;3.60;2.80;;;;;;;25.93;34.38;99674.53;5034082;28;20189;-73
2023/05/07 11:18:18;;;;;;;2.97;2.60;;;;;;;26.25;33.39;99652.88;5032620;28;20247;-73
2023/05/07 11:20:53;;;;;;;3.17;2.87;;;;;;;26.58;33.81;99649.13;5033848;28;20220;-73
2023/05/07 11:24:09;;;;;;;2.80;2.70;;;;;;;26.85;33.02;99647.31;5032454;28;20243;-72
2023/05/07 11:26:47;;;;;;;2.70;2.60;;;;;;;27.03;32.43;99648.38;5033486;28;20193;-72
2023/05/07 11:29:16;;;;;;;3.17;2.90;;;;;;;27.05;31.26;99637.97;5032351;28;20229;-72
2023/05/07 11:31:43;;;;;;;3.10;2.40;;;;;;;27.25;31.33;99649.38;5033648;28;20251;-73
2023/05/07 11:34:12;;;;;;;4.40;2.53;;;;;;;27.07;30.81;99641.22;5032525;28;20260;-72
2023/05/07 11:36:44;;;;;;;2.83;2.63;;;;;;;27.21;30.58;99653.00;5013478;28;20229;-72